• Join FlightAware (Why Join?)
  • Login
  • US Flag 
05:00PM EDT


 

Airport Tracker/Info


-or-


 

Live Flight TrackerFlight Track Log ✈ AAL963 ✈ 10-Sep-2013 ✈ KDFW - SBGR / GRU

Flight Track Log - Related Links

Times and Time Zones

All times are in EDT time to prevent confusion due to time zone crossing. See the AAL963 flight status page for this flight to view local times or setup timezone preferences in your user account.

Time Position Orientation Groundspeed Altitude Reporting Facility
EDT Latitude Longitude Course Direction KTS MPH feet Rate Location/Type
09:02PM 32.8760 -97.0300 181° South 189 217 1,200  Level FlightAware
09:02PM 32.8530 -97.0300 180° South 191 220 2,100 1,860 Climbing FlightAware
09:02PM 32.8450 -97.0300 180° South 201 231 2,300 720 Climbing FlightAware
09:03PM 32.8220 -97.0300 180° South 232 267 2,500 1,080 Climbing FlightAware
09:03PM 32.8030 -97.0300 180° South 246 283 3,000 2,400 Climbing FlightAware
09:03PM 32.7640 -97.0300 180° South 251 289 4,600 2,580 Climbing FlightAware
09:04PM 32.7540 -97.0280 170° South 256 295 4,900 2,400 Climbing FlightAware
09:04PM 32.7410 -97.0200 153° Southeast 261 300 5,400 2,220 Climbing FlightAware
09:04PM 32.7370 -97.0170 148° Southeast 264 304 5,500 2,460 Climbing FlightAware
09:04PM 32.7300 -97.0070 130° Southeast 267 307 5,900 3,000 Climbing FlightAware
09:04PM 32.7250 -96.9960 118° Southeast 272 313 6,300 2,580 Climbing FlightAware
09:04PM 32.7230 -96.9850 102° East 276 318 6,600 2,700 Climbing FlightAware
09:05PM 32.7250 -96.9420 87° East 277 319 8,000 2,760 Climbing FlightAware
09:05PM 32.7260 -96.9280 85° East 279 321 8,400 2,460 Climbing FlightAware
09:05PM 32.7290 -96.8880 85° East 288 331 9,400 1,800 Climbing FlightAware
09:06PM 32.7310 -96.8540 86° East 287 330 9,800 660 Climbing FlightAware
09:06PM 32.7330 -96.8210 86° East 289 333 9,900 900 Climbing FlightAware
09:06PM 32.7360 -96.7690 86° East 306 352 10,600 1,200 Climbing FlightAware
09:07PM 32.7400 -96.7040 86° East 339 390 11,300 1,140 Climbing FlightAware
09:08PM 32.7440 -96.6340 86° East 375 432 12,000 1,620 Climbing FlightAware
09:08PM 32.7480 -96.5630 86° East 387 445 13,200 2,160 Climbing FlightAware
09:09PM 32.7520 -96.4900 86° East 398 458 14,500 2,040 Climbing FlightAware
09:09PM 32.7560 -96.4100 87° East 408 470 15,700 2,100 Climbing FlightAware
09:10PM 32.7550 -96.2910 91° East 422 486 17,500 1,920 Climbing FlightAware
09:11PM 32.7410 -96.2070 101° East 430 495 18,700 1,860 Climbing FlightAware
09:12PM 32.7250 -96.1080 101° East 441 507 20,000 1,920 Climbing FlightAware
09:12PM 32.7130 -96.0330 101° East 449 517 20,900 1,800 Climbing FlightAware
09:13PM 32.7010 -95.9480 100° East 453 521 22,000 1,800 Climbing FlightAware
09:13PM 32.6906 -95.8886 102° East 460 529 22,700 1,020 Climbing FlightAware ADS-B
09:14PM 32.6670 -95.7330 100° East 470 541 23,600 1,500 Climbing FlightAware
09:14PM 32.6599 -95.6802 99° East 463 533 24,800 3,060 Climbing FlightAware ADS-B
09:15PM 32.6586 -95.6321 92° East 480 552 25,300 1,320 Climbing FlightAware ADS-B
09:15PM 32.6630 -95.5420 87° East 491 565 26,000 1,440 Climbing FlightAware
09:16PM 32.6730 -95.4380 83° East 492 566 27,100 1,560 Climbing FlightAware
09:16PM 32.6778 -95.3576 86° East 497 572 27,800 120 Climbing FlightAware ADS-B
09:17PM 32.6850 -95.2720 84° East 492 566 27,300 -420 Descending FlightAware
09:18PM 32.6910 -95.1900 85° East 492 566 27,300 2,700 Level FlightAware
09:18PM 32.6951 -95.0797 87° East 510 587 30,000 3,600 Climbing FlightAware ADS-B
09:19PM 32.6788 -94.9505 98° East 508 585 31,600 1,920 Climbing FlightAware ADS-B
09:20PM 32.6307 -94.8512 120° Southeast 471 542 33,000 1,080 Climbing FlightAware ADS-B
09:20PM 32.5936 -94.7828 123° Southeast 468 539 33,000  Level FlightAware ADS-B
09:21PM 32.5560 -94.7144 123° Southeast 468 539 33,000 -600 Level FlightAware ADS-B
09:22PM 32.5400 -94.6260 102° East 479 551 32,200  Descending FlightAware
09:22PM 32.4410 -94.5020 133° Southeast 469 540 33,000 540 Climbing FlightAware
09:23PM 32.4060 -94.4360 122° Southeast 469 540 33,000  Level FlightAware
09:23PM 32.3671 -94.3703 125° Southeast 476 548 33,000  Level FlightAware ADS-B
09:24PM 32.3296 -94.3022 123° Southeast 477 549 33,000  Level FlightAware ADS-B
09:24PM 32.2882 -94.2274 123° Southeast 478 550 33,000  Level FlightAware ADS-B
09:25PM 32.2268 -94.1169 123° Southeast 477 549 33,000  Level FlightAware ADS-B
09:26PM 32.1869 -94.0450 123° Southeast 478 550 33,000  Level FlightAware ADS-B
09:26PM 32.1460 -93.9714 123° Southeast 478 550 33,000  Level FlightAware ADS-B
09:27PM 32.1091 -93.9055 123° Southeast 480 552 33,000  Level FlightAware ADS-B
09:28PM 32.0550 -93.8088 123° Southeast 480 552 33,000  Level FlightAware ADS-B
09:28PM 32.0180 -93.7427 123° Southeast 482 555 33,000  Level FlightAware ADS-B
09:29PM 31.9701 -93.6576 124° Southeast 481 554 33,000  Level FlightAware ADS-B
09:30PM 32.0170 -93.7020 321° Northwest 469 540 33,000  Level FlightAware
09:30PM 31.9840 -93.6390 122° Southeast 469 540 33,000  Level FlightAware
09:31PM 31.9490 -93.5730 122° Southeast 469 540 33,000  Level FlightAware
09:31PM 31.9140 -93.5060 122° Southeast 469 540 33,000  Level FlightAware
09:33PM 31.6753 -93.1367 127° Southeast 485 558 33,000  Level FlightAware ADS-B
09:34PM 31.6198 -93.0393 124° Southeast 485 558 33,000  Level FlightAware ADS-B
09:34PM 31.5806 -92.9708 124° Southeast 487 560 33,000  Level FlightAware ADS-B
09:38PM 31.2735 -92.4273 123° Southeast 491 565 33,000  Level FlightAware ADS-B
09:39PM 31.2349 -92.3595 124° Southeast 493 567 33,000  Level FlightAware ADS-B
09:39PM 31.1741 -92.2531 124° Southeast 493 567 33,000  Level FlightAware ADS-B
09:40PM 31.1232 -92.1643 124° Southeast 495 570 33,000  Level FlightAware ADS-B
09:41PM 31.0721 -92.0751 124° Southeast 495 570 33,000  Level FlightAware ADS-B
09:42PM 30.9840 -91.9210 124° Southeast 495 570 33,000  Level FlightAware
09:43PM 30.9380 -91.8430 124° Southeast 495 570 33,000  Level FlightAware
09:43PM 30.9030 -91.7810 123° Southeast 495 570 33,000  Level FlightAware
09:44PM 30.8560 -91.7010 124° Southeast 497 572 33,000  Level FlightAware
09:44PM 30.8130 -91.6270 124° Southeast 498 573 33,000  Level FlightAware
09:45PM 30.7640 -91.5430 124° Southeast 497 572 33,000  Level FlightAware
09:46PM 30.7150 -91.4580 124° Southeast 499 574 33,000  Level FlightAware
09:46PM 30.6740 -91.3870 124° Southeast 499 574 33,000  Level FlightAware
09:47PM 30.6280 -91.3090 124° Southeast 501 577 33,000  Level FlightAware
09:47PM 30.5770 -91.2230 125° Southeast 501 577 33,000  Level FlightAware
09:48PM 30.5360 -91.1530 124° Southeast 500 575 33,000  Level FlightAware
09:49PM 30.4699 -91.0405 124° Southeast 500 575 33,000  Level FlightAware ADS-B
09:49PM 30.4096 -90.9383 124° Southeast 497 572 33,000  Level FlightAware ADS-B
09:50PM 30.3960 -90.9130 122° Southeast 498 573 33,000  Level FlightAware
09:50PM 30.3570 -90.8450 124° Southeast 498 573 33,000  Level FlightAware
09:51PM 30.2830 -90.7250 126° Southeast 497 572 33,000  Level FlightAware
09:52PM 30.2360 -90.6460 125° Southeast 498 573 33,000  Level FlightAware
09:52PM 30.1850 -90.5610 125° Southeast 496 571 33,000  Level FlightAware
09:53PM 30.1540 -90.4930 118° Southeast 496 571 33,000  Level FlightAware
09:53PM 30.1210 -90.4000 112° Southeast 495 570 33,000  Level FlightAware
09:54PM 30.0860 -90.3050 113° Southeast 495 570 33,000  Level FlightAware
09:55PM 30.0590 -90.2360 114° Southeast 495 570 33,000  Level FlightAware
09:55PM 30.0190 -90.1360 115° Southeast 494 568 33,000  Level FlightAware
09:56PM 29.9900 -90.0640 115° Southeast 493 567 33,000  Level FlightAware
09:56PM 29.9560 -89.9810 115° Southeast 495 570 33,000  Level FlightAware
09:57PM 29.9230 -89.8970 114° Southeast 496 571 33,000  Level FlightAware
09:57PM 29.8910 -89.8120 113° Southeast 494 568 33,000  Level FlightAware
09:58PM 29.8550 -89.7170 114° Southeast 494 568 33,000  Level FlightAware
09:59PM 29.8260 -89.6440 115° Southeast 493 567 33,000  Level FlightAware
09:59PM 29.7930 -89.5560 113° Southeast 494 568 33,000  Level FlightAware
10:00PM 29.7600 -89.4720 114° Southeast 495 570 33,000  Level FlightAware
10:00PM 29.7260 -89.3830 114° Southeast 495 570 33,000  Level FlightAware
10:01PM 29.6910 -89.2880 113° Southeast 495 570 33,000  Level FlightAware
10:02PM 29.6620 -89.2090 113° Southeast 495 570 33,000  Level FlightAware
10:02PM 29.6250 -89.1130 114° Southeast 495 570 33,000  Level FlightAware
10:03PM 29.5910 -89.0280 115° Southeast 495 570 33,000  Level FlightAware
10:03PM 29.5610 -88.9510 114° Southeast 495 570 33,000  Level FlightAware
10:04PM 29.5270 -88.8650 114° Southeast 496 571 33,000  Level FlightAware
10:05PM 29.4940 -88.7790 114° Southeast 496 571 33,000  Level FlightAware
10:05PM 29.4590 -88.6890 114° Southeast 496 571 33,000  Level FlightAware
10:06PM 29.4280 -88.6130 115° Southeast 495 570 33,000  Level FlightAware
10:06PM 29.3940 -88.5270 114° Southeast 496 571 33,000  Level FlightAware
10:07PM 29.3650 -88.4520 114° Southeast 495 570 33,000  Level FlightAware
10:08PM 29.3290 -88.3610 114° Southeast 496 571 33,000  Level FlightAware
10:08PM 29.2940 -88.2750 115° Southeast 494 568 33,000  Level FlightAware
10:09PM 29.2620 -88.1940 114° Southeast 494 568 33,000  Level FlightAware
10:09PM 29.2260 -88.1040 115° Southeast 494 568 33,000  Level FlightAware
10:10PM 29.1960 -88.0280 114° Southeast 495 570 33,000  Level FlightAware
10:10PM 29.1610 -87.9410 115° Southeast 498 573 33,000  Level FlightAware
10:11PM 29.1270 -87.8560 115° Southeast 500 575 33,000  Level FlightAware
10:12PM 29.0950 -87.7770 115° Southeast 500 575 33,000  Level FlightAware
10:12PM 29.0600 -87.6920 115° Southeast 502 578 33,000  Level FlightAware
10:13PM 29.0250 -87.6050 115° Southeast 503 579 33,000  Level FlightAware
10:13PM 28.9900 -87.5190 115° Southeast 503 579 33,000  Level FlightAware
10:14PM 28.9590 -87.4420 115° Southeast 502 578 33,000  Level FlightAware
10:14PM 28.9260 -87.3620 115° Southeast 503 579 33,000  Level FlightAware
10:15PM 28.8860 -87.2640 115° Southeast 505 581 33,000  Level FlightAware
10:16PM 28.8540 -87.1860 115° Southeast 505 581 33,000  Level FlightAware
10:16PM 28.8210 -87.1040 115° Southeast 505 581 33,000  Level FlightAware
10:17PM 28.7830 -87.0130 115° Southeast 506 582 33,000  Level FlightAware
10:17PM 28.7510 -86.9360 115° Southeast 506 582 33,000  Level FlightAware
10:18PM 28.7160 -86.8500 115° Southeast 508 585 33,000  Level FlightAware
10:19PM 28.6800 -86.7650 116° Southeast 509 586 33,000  Level FlightAware
10:19PM 28.6430 -86.6740 115° Southeast 509 586 33,000  Level FlightAware
10:20PM 28.6120 -86.6010 116° Southeast 510 587 33,000  Level FlightAware
10:20PM 28.5730 -86.5070 115° Southeast 511 588 33,000  Level FlightAware
10:21PM 28.5400 -86.4270 115° Southeast 510 587 33,000  Level FlightAware
10:22PM 28.5050 -86.3430 115° Southeast 510 587 33,000  Level FlightAware
10:22PM 28.4740 -86.2690 115° Southeast 510 587 33,000  Level FlightAware
10:23PM 28.4440 -86.1940 114° Southeast 510 587 33,000  Level FlightAware
10:23PM 28.4130 -86.1200 115° Southeast 510 587 33,000  Level FlightAware
10:24PM 28.3820 -86.0430 115° Southeast 510 587 33,000  Level FlightAware
10:24PM 28.3240 -85.9150 117° Southeast 511 588 33,000  Level FlightAware
10:25PM 28.2900 -85.8330 115° Southeast 512 589 33,000  Level FlightAware
10:26PM 28.2590 -85.7610 116° Southeast 511 588 33,000  Level FlightAware
10:26PM 28.2260 -85.6800 115° Southeast 511 588 33,000  Level FlightAware
10:27PM 28.1950 -85.6060 115° Southeast 511 588 33,000  Level FlightAware
10:27PM 28.1650 -85.5320 115° Southeast 511 588 33,000  Level FlightAware
10:28PM 28.1050 -85.3980 117° Southeast 513 590 33,000  Level FlightAware
10:29PM 28.0740 -85.3240 115° Southeast 513 590 33,000  Level FlightAware
10:29PM 28.0440 -85.2490 114° Southeast 513 590 33,000  Level FlightAware
10:30PM 27.9900 -85.1340 118° Southeast 516 594 33,000  Level FlightAware
10:30PM 27.9510 -85.0430 116° Southeast 517 595 33,000  Level FlightAware
10:31PM 27.9140 -84.9580 116° Southeast 517 595 33,000  Level FlightAware
10:32PM 27.8770 -84.8730 116° Southeast 518 596 33,000  Level FlightAware
10:32PM 27.8410 -84.7890 116° Southeast 518 596 33,000  Level FlightAware
10:33PM 27.8040 -84.7050 116° Southeast 519 597 33,000  Level FlightAware
10:33PM 27.7660 -84.6180 116° Southeast 518 596 33,000  Level FlightAware
10:34PM 27.7280 -84.5350 117° Southeast 518 596 33,000  Level FlightAware
10:35PM 27.6900 -84.4530 118° Southeast 518 596 33,000  Level FlightAware
10:35PM 27.6500 -84.3660 117° Southeast 519 597 33,000  Level FlightAware
10:36PM 27.6110 -84.2830 118° Southeast 520 598 33,000  Level FlightAware
10:36PM 27.5720 -84.1990 118° Southeast 521 600 33,000  Level FlightAware
10:37PM 27.5270 -84.1020 118° Southeast 522 601 33,000  Level FlightAware
10:38PM 27.4830 -84.0070 118° Southeast 521 600 33,000  Level FlightAware
10:38PM 27.4490 -83.9350 118° Southeast 521 600 33,000  Level FlightAware
10:39PM 27.4050 -83.8410 118° Southeast 520 598 33,000  Level FlightAware
10:39PM 27.3620 -83.7480 117° Southeast 520 598 33,000  Level FlightAware
10:40PM 27.3280 -83.6760 118° Southeast 520 598 33,000  Level FlightAware
10:41PM 27.2880 -83.5900 118° Southeast 522 601 33,000  Level FlightAware
10:41PM 27.2480 -83.5040 118° Southeast 522 601 33,000  Level FlightAware
10:42PM 27.2060 -83.4160 118° Southeast 521 600 33,000  Level FlightAware
10:42PM 27.1730 -83.3460 118° Southeast 522 601 33,000  Level FlightAware
10:43PM 27.1330 -83.2630 118° Southeast 522 601 33,000  Level FlightAware
10:43PM 27.0870 -83.1640 118° Southeast 521 600 33,000  Level FlightAware
10:44PM 27.0410 -83.0680 118° Southeast 522 601 33,000  Level FlightAware
10:45PM 27.0010 -82.9850 118° Southeast 522 601 33,000  Level FlightAware
10:45PM 26.9590 -82.8970 118° Southeast 524 603 33,000  Level FlightAware
10:46PM 26.9210 -82.8170 118° Southeast 523 602 33,000  Level FlightAware
10:46PM 26.8850 -82.7420 118° Southeast 523 602 33,000  Level FlightAware
10:47PM 26.8400 -82.6490 118° Southeast 525 604 33,000  Level FlightAware
10:48PM 26.8060 -82.5780 118° Southeast 522 601 33,000  Level FlightAware
10:48PM 26.7650 -82.4930 118° Southeast 522 601 33,000  Level FlightAware
10:49PM 26.7200 -82.3990 118° Southeast 522 601 33,000  Level FlightAware
10:49PM 26.6790 -82.3150 119° Southeast 522 601 33,000  Level FlightAware
10:50PM 26.6450 -82.2440 118° Southeast 522 601 33,000  Level FlightAware
10:51PM 26.6040 -82.1600 119° Southeast 522 601 33,000  Level FlightAware
10:51PM 26.5570 -82.0640 119° Southeast 522 601 33,000  Level FlightAware
10:52PM 26.5220 -81.9920 119° Southeast 523 602 33,000  Level FlightAware
10:52PM 26.4820 -81.9110 119° Southeast 523 602 33,000  Level FlightAware
10:53PM 26.4350 -81.8150 119° Southeast 524 603 33,000  Level FlightAware
10:54PM 26.3940 -81.7310 119° Southeast 523 602 33,000  Level FlightAware
10:54PM 26.3550 -81.6510 119° Southeast 527 606 33,000  Level FlightAware
10:55PM 26.3140 -81.5670 119° Southeast 526 605 33,000  Level FlightAware
10:55PM 26.2720 -81.4830 119° Southeast 525 604 33,000  Level FlightAware
10:56PM 26.2240 -81.3850 119° Southeast 526 605 33,000  Level FlightAware
10:57PM 26.1830 -81.3020 119° Southeast 521 600 33,000  Level FlightAware
10:57PM 26.1430 -81.2220 119° Southeast 521 600 33,000  Level FlightAware
10:58PM 26.1010 -81.1370 119° Southeast 520 598 33,000  Level FlightAware
10:58PM 26.0610 -81.0560 119° Southeast 520 598 33,000  Level FlightAware
10:59PM 26.0190 -80.9730 119° Southeast 520 598 33,000  Level FlightAware
10:59PM 25.9780 -80.8910 119° Southeast 518 596 33,000  Level FlightAware
11:00PM 25.9370 -80.8090 119° Southeast 517 595 33,000  Level FlightAware
11:01PM 25.8970 -80.7300 119° Southeast 516 594 33,000  Level FlightAware
11:01PM 25.8490 -80.6340 119° Southeast 514 592 33,000  Level FlightAware
11:02PM 25.8080 -80.5530 119° Southeast 515 593 33,000  Level FlightAware
11:02PM 25.7670 -80.4710 119° Southeast 521 600 33,000  Level FlightAware
11:03PM 25.7200 -80.3790 120° Southeast 524 603 33,000  Level FlightAware
11:04PM 25.6840 -80.3070 119° Southeast 524 603 33,000  Level FlightAware
11:04PM 25.6430 -80.2270 120° Southeast 523 602 33,000  Level FlightAware
11:05PM 25.6010 -80.1450 120° Southeast 523 602 33,000  Level FlightAware
11:06PM 25.5490 -80.0410 119° Southeast 522 601 33,000  Level FlightAware
11:06PM 25.5060 -79.9570 120° Southeast 522 601 33,000  Level FlightAware
11:07PM 25.4650 -79.8770 120° Southeast 523 602 33,000  Level FlightAware
11:07PM 25.4230 -79.7940 119° Southeast 523 602 33,000  Level FlightAware
11:08PM 25.3760 -79.7180 124° Southeast 515 593 33,000  Level FlightAware
11:08PM 25.3270 -79.6410 125° Southeast 514 592 33,000  Level FlightAware
11:09PM 25.2790 -79.5660 125° Southeast 515 593 33,000  Level FlightAware
11:10PM 25.2300 -79.4890 125° Southeast 515 593 33,000  Level FlightAware
11:10PM 25.1810 -79.4160 127° Southeast 519 597 33,000  Level FlightAware
11:11PM 25.1240 -79.3290 126° Southeast 518 596 33,000  Level FlightAware
11:11PM 25.0750 -79.2560 127° Southeast 518 596 33,000  Level FlightAware
11:12PM 25.0250 -79.1800 126° Southeast 517 595 33,000  Level FlightAware
11:13PM 24.9750 -79.1040 126° Southeast 519 597 33,000  Level FlightAware
11:13PM 24.9270 -79.0310 126° Southeast 520 598 33,000  Level FlightAware
11:14PM 24.8770 -78.9560 126° Southeast 524 603 33,000  Level FlightAware
11:14PM 24.8290 -78.8840 126° Southeast 525 604 33,000  Level FlightAware
11:15PM 24.7760 -78.8050 126° Southeast 526 605 33,000  Level FlightAware
11:16PM 24.7240 -78.7260 126° Southeast 524 603 33,000  Level FlightAware
11:16PM 24.6790 -78.6580 126° Southeast 524 603 33,000  Level FlightAware
11:17PM 24.6070 -78.5510 126° Southeast 523 602 33,000  Level FlightAware
11:18PM 24.5210 -78.4230 126° Southeast 523 602 33,000  Level FlightAware
11:19PM 24.4770 -78.3580 127° Southeast 523 602 33,000  Level FlightAware
11:19PM 24.4340 -78.2920 126° Southeast 523 602 33,000  Level FlightAware
11:20PM 24.3900 -78.2260 126° Southeast 523 602 33,000  Level FlightAware
11:20PM 24.3460 -78.1580 125° Southeast 523 602 33,000  Level FlightAware
11:21PM 24.3020 -78.0930 127° Southeast 523 602 33,000  Level FlightAware
11:22PM 24.2590 -78.0270 126° Southeast 523 602 33,000  Level FlightAware
11:22PM 24.2160 -77.9630 126° Southeast 523 602 33,000  Level FlightAware
11:23PM 24.1730 -77.8970 126° Southeast 523 602 33,000  Level FlightAware
11:23PM 24.1290 -77.8320 127° Southeast 523 602 33,000  Level FlightAware
11:24PM 24.0860 -77.7660 126° Southeast 523 602 33,000  Level FlightAware
11:25PM 24.0420 -77.7010 127° Southeast 523 602 33,000  Level FlightAware
11:25PM 23.9990 -77.6350 125° Southeast 523 602 33,000  Level FlightAware
11:26PM 23.9550 -77.5700 127° Southeast 523 602 33,000  Level FlightAware
11:26PM 23.9120 -77.5040 125° Southeast 523 602 33,000  Level FlightAware
11:27PM 23.8680 -77.4380 126° Southeast 523 602 33,000  Level FlightAware
11:28PM 23.4250 -77.4317 126° Southeast 495 570 33,000 -60 Level Miami Center
11:29PM 23.2894 -77.3994 168° South 495 570 32,900 -360 Descending Miami Center
11:30PM 23.1556 -77.3697 168° South 490 564 32,400 -480 Descending Miami Center
11:31PM 23.0219 -77.3397 168° South 490 564 32,000 -480 Descending Miami Center
11:32PM 22.8925 -77.3100 168° South 485 558 31,500 -540 Descending Miami Center
11:33PM 22.7611 -77.2803 168° South 485 558 31,000 -300 Descending Miami Center
11:34PM 22.6294 -77.2347 162° South 490 564 31,000  Level Miami Center
11:35PM 22.5086 -77.1739 155° Southeast 490 564 31,000  Level Miami Center
11:36PM 22.3958 -77.0994 149° Southeast 485 558 31,000  Level Miami Center
11:37PM 22.2831 -77.0139 145° Southeast 484 557 31,000  Level Miami Center
11:38PM 22.1828 -76.9172 138° Southeast 484 557 31,000  Level Miami Center
11:39PM 22.0889 -76.8097 133° Southeast 484 557 31,000  Level Miami Center
11:40PM 22.0094 -76.6911 126° Southeast 484 557 31,000  Level Miami Center
11:41PM 21.9464 -76.5611 118° Southeast 489 563 31,000  Level Miami Center
11:42PM 21.8836 -76.4317 118° Southeast 489 563 31,000  Level Miami Center
11:43PM 21.8183 -76.2953 117° Southeast 489 563 31,000  Level Miami Center
11:44PM 21.7614 -76.1614 115° Southeast 494 568 31,000  Level Miami Center
11:45PM 21.7064 -76.0256 114° Southeast 494 568 31,000  Level Miami Center
11:46PM 21.6556 -75.8850 111° Southeast 494 568 31,000 -60 Level Miami Center
11:47PM 21.6022 -75.7492 113° Southeast 494 568 30,900  Descending Miami Center
11:48PM 21.5450 -75.6181 115° Southeast 494 568 31,000  Climbing Miami Center
11:49PM 21.4750 -75.4892 120° Southeast 487 560 30,900  Descending Miami Center
11:50PM 21.3983 -75.3561 122° Southeast 487 560 31,000  Climbing Miami Center
11:51PM 21.3261 -75.2344 122° Southeast 481 554 30,900 -60 Descending Miami Center
11:52PM 21.2558 -75.1083 121° Southeast 486 559 30,900  Level Miami Center
11:53PM 21.1814 -74.9825 122° Southeast 491 565 31,000  Climbing Miami Center
11:54PM 21.1236 -74.8831 122° Southeast 491 565 30,900  Descending Miami Center
11:55PM 21.0383 -74.7375 122° Southeast 491 565 31,000  Climbing Miami Center
11:56PM 20.9678 -74.6142 121° Southeast 491 565 30,900  Descending Miami Center
11:57PM 20.8969 -74.4911 122° Southeast 491 565 31,000  Climbing Miami Center
11:58PM 20.8261 -74.3681 122° Southeast 491 565 30,900  Descending Miami Center
11:59PM 20.7511 -74.2453 123° Southeast 491 565 31,000  Climbing Miami Center
12:00AM 20.6800 -74.1244 122° Southeast 491 565 31,000 -60 Level Miami Center
12:01AM 20.6092 -74.0019 122° Southeast 491 565 30,900  Descending Miami Center
12:02AM 20.5358 -73.8772 122° Southeast 491 565 31,000  Climbing Miami Center
12:03AM 20.4625 -73.7547 123° Southeast 491 565 31,000 -60 Level Miami Center
12:04AM 20.3911 -73.6325 122° Southeast 491 565 30,900 -60 Descending Miami Center
12:05AM 20.3197 -73.5125 122° Southeast 491 565 30,900  Level Miami Center
12:06AM 20.2481 -73.3906 122° Southeast 491 565 30,900  Level Miami Center
12:07AM 20.1744 -73.2686 123° Southeast 491 565 30,900  Level Miami Center
12:09AM 20.0651 -73.1597 142° Southeast  Level FlightAware Approximate
12:16AM 19.3155 -72.5372 142° Southeast  Level FlightAware Approximate
12:17AM 19.2082 -72.4487 142° Southeast  Level FlightAware Approximate
12:18AM 19.1009 -72.3604 142° Southeast  Level FlightAware Approximate
12:19AM 18.9935 -72.2721 142° Southeast  Level FlightAware Approximate
12:20AM 18.8861 -72.1840 142° Southeast  Level FlightAware Approximate
12:21AM 18.7787 -72.0960 142° Southeast  Level FlightAware Approximate
12:22AM 18.6712 -72.0081 142° Southeast  Level FlightAware Approximate
12:23AM 18.5667 -71.9167 137° Southeast  Level FlightAware Approximate
12:24AM 18.4608 -71.8275 146° Southeast  Level FlightAware Approximate
12:25AM 18.3476 -71.7482 145° Southeast  Level FlightAware Approximate
12:26AM 18.2373 -71.6645 144° Southeast  Level FlightAware Approximate
12:27AM 18.1276 -71.5800 144° Southeast  Level FlightAware Approximate
12:27AM 18.0250 -71.4930 144° Southeast 505 581 31,000  Level FlightAware
12:28AM 17.9550 -71.4380 143° Southeast 502 578 31,000  Level FlightAware
12:28AM 17.8810 -71.3790 143° Southeast 500 575 31,000  Level FlightAware
12:29AM 17.8310 -71.3390 143° Southeast 500 575 31,000  Level FlightAware
12:30AM 17.7270 -71.2570 143° Southeast 504 580 31,000  Level FlightAware
12:30AM 17.6570 -71.2030 144° Southeast 503 579 31,000  Level FlightAware
12:31AM 17.5970 -71.1540 142° Southeast 503 579 31,000  Level FlightAware
12:32AM 17.5410 -71.1080 142° Southeast 503 579 31,000  Level FlightAware
12:32AM 17.4840 -71.0620 142° Southeast 503 579 31,000  Level FlightAware
12:33AM 17.4280 -71.0160 142° Southeast 503 579 31,000  Level FlightAware
12:33AM 17.3720 -70.9700 142° Southeast 503 579 31,000  Level FlightAware
12:34AM 17.3150 -70.9220 141° Southeast 503 579 31,000  Level FlightAware
12:35AM 17.2570 -70.8750 142° Southeast 503 579 31,000  Level FlightAware
12:35AM 17.2010 -70.8290 142° Southeast 503 579 31,000  Level FlightAware
12:36AM 17.1430 -70.7820 142° Southeast 503 579 31,000  Level FlightAware
12:37AM 16.9770 -70.6710 147° Southeast 489 563 31,000  Level FlightAware
12:37AM 16.8950 -70.6060 143° Southeast 488 562 31,000  Level FlightAware
12:38AM 16.8400 -70.5630 143° Southeast 488 562 31,000  Level FlightAware
12:39AM 16.7620 -70.5030 144° Southeast 487 560 31,000  Level FlightAware
12:39AM 16.6940 -70.4510 144° Southeast 487 560 31,000  Level FlightAware
12:40AM 16.6340 -70.4040 143° Southeast 487 560 31,000  Level FlightAware
12:40AM 16.5600 -70.3460 143° Southeast 488 562 31,000  Level FlightAware
12:41AM 16.5030 -70.3020 143° Southeast 488 562 31,000  Level FlightAware
12:42AM 16.4480 -70.2580 143° Southeast 488 562 31,000  Level FlightAware
12:42AM 16.3910 -70.2140 143° Southeast 488 562 31,000  Level FlightAware
12:43AM 16.3360 -70.1700 142° Southeast 488 562 31,000  Level FlightAware
12:43AM 16.2810 -70.1270 143° Southeast 488 562 31,000  Level FlightAware
12:44AM 16.2260 -70.0840 143° Southeast 488 562 31,000  Level FlightAware
12:45AM 16.1710 -70.0410 143° Southeast 488 562 31,000  Level FlightAware
12:45AM 16.1150 -69.9970 143° Southeast 488 562 31,000  Level FlightAware
12:46AM 15.9500 -69.8770 145° Southeast 495 570 31,000  Level FlightAware
12:47AM 15.8890 -69.8310 144° Southeast 495 570 31,000  Level FlightAware
12:47AM 15.7800 -69.7530 145° Southeast 497 572 31,000  Level FlightAware
12:48AM 15.7070 -69.6990 145° Southeast 497 572 31,000  Level FlightAware
12:49AM 15.6360 -69.6480 145° Southeast 496 571 31,000  Level FlightAware
12:49AM 15.5680 -69.5980 145° Southeast 497 572 31,000  Level FlightAware
12:50AM 15.4810 -69.5350 145° Southeast 498 573 31,000  Level FlightAware
12:51AM 15.3860 -69.4650 145° Southeast 500 575 31,000  Level FlightAware
12:51AM 15.3100 -69.4100 145° Southeast 508 585 31,000  Level FlightAware
12:52AM 15.2410 -69.3600 145° Southeast 499 574 31,000  Level FlightAware
12:53AM 15.1730 -69.3100 145° Southeast 498 573 31,000  Level FlightAware
12:53AM 15.1070 -69.2620 145° Southeast 497 572 31,000  Level FlightAware
12:54AM 15.0400 -69.2140 145° Southeast 498 573 31,000  Level FlightAware
12:54AM 14.9710 -69.1630 144° Southeast 497 572 31,000  Level FlightAware
12:55AM 14.9070 -69.1170 145° Southeast 497 572 31,000  Level FlightAware
12:55AM 14.8450 -69.0720 145° Southeast 498 573 31,000  Level FlightAware
12:56AM 14.7710 -69.0180 145° Southeast 498 573 31,000  Level FlightAware
12:57AM 14.7020 -68.9680 145° Southeast 498 573 31,000  Level FlightAware
12:57AM 14.6250 -68.9130 145° Southeast 499 574 31,000  Level FlightAware
12:58AM 14.5570 -68.8640 145° Southeast 498 573 31,000  Level FlightAware
12:59AM 14.4910 -68.8160 145° Southeast 495 570 31,000  Level FlightAware
12:59AM 14.4240 -68.7680 145° Southeast 493 567 31,000  Level FlightAware
01:00AM 14.3580 -68.7200 145° Southeast 491 565 31,000  Level FlightAware
01:00AM 14.2920 -68.6720 145° Southeast 495 570 31,000  Level FlightAware
01:01AM 14.2260 -68.6250 145° Southeast 493 567 31,000  Level FlightAware
01:01AM 14.1600 -68.5780 145° Southeast 493 567 31,000  Level FlightAware
01:02AM 14.0930 -68.5300 145° Southeast 492 566 31,000  Level FlightAware
01:03AM 14.0180 -68.4750 145° Southeast 492 566 31,000  Level FlightAware
01:03AM 13.9530 -68.4290 146° Southeast 492 566 31,000  Level FlightAware
01:04AM 13.8870 -68.3810 145° Southeast 493 567 31,000  Level FlightAware
01:04AM 13.8220 -68.3350 146° Southeast 492 566 31,000  Level FlightAware
01:05AM 13.7550 -68.2870 145° Southeast 494 568 31,000  Level FlightAware
01:06AM 13.6910 -68.2410 145° Southeast 493 567 31,000  Level FlightAware
01:06AM 13.6250 -68.1940 145° Southeast 490 564 31,000  Level FlightAware
01:07AM 13.5590 -68.1470 145° Southeast 488 562 31,000  Level FlightAware
01:07AM 13.4940 -68.1000 145° Southeast 478 550 31,000  Level FlightAware
01:08AM 13.4310 -68.0550 145° Southeast 478 550 31,000  Level FlightAware
01:09AM 13.3650 -68.0090 146° Southeast 478 550 31,000  Level FlightAware
01:09AM 13.3000 -67.9620 145° Southeast 475 547 31,000  Level FlightAware
01:10AM 13.2340 -67.9150 145° Southeast 477 549 31,000  Level FlightAware
01:10AM 13.1710 -67.8710 146° Southeast 474 545 31,000  Level FlightAware
01:11AM 13.1340 -67.8440 145° Southeast 474 545 31,000  Level FlightAware
01:12AM 13.0780 -67.8020 144° Southeast 474 545 31,000  Level FlightAware
01:12AM 12.9800 -67.7340 146° Southeast 477 549 31,000  Level FlightAware
01:13AM 12.9250 -67.6960 146° Southeast 477 549 31,000  Level FlightAware
01:13AM 12.8590 -67.6490 145° Southeast 477 549 31,000  Level FlightAware
01:14AM 12.7870 -67.5980 145° Southeast 475 547 31,000  Level FlightAware
01:14AM 12.7210 -67.5510 145° Southeast 477 549 31,000  Level FlightAware
01:15AM 12.6650 -67.5120 146° Southeast 477 549 31,000  Level FlightAware
01:15AM 12.6020 -67.4680 146° Southeast 475 547 31,000  Level FlightAware
01:16AM 12.5360 -67.4220 146° Southeast 473 544 31,000  Level FlightAware
01:17AM 12.4730 -67.3770 145° Southeast 470 541 31,000  Level FlightAware
01:17AM 12.4080 -67.3320 146° Southeast 470 541 31,000  Level FlightAware
01:18AM 12.3450 -67.2870 145° Southeast 470 541 31,000  Level FlightAware
01:18AM 12.2810 -67.2420 146° Southeast 469 540 31,000  Level FlightAware
01:19AM 12.2090 -67.1920 146° Southeast 473 544 31,000  Level FlightAware
01:20AM 12.1540 -67.1530 145° Southeast 473 544 31,000  Level FlightAware
01:20AM 12.0820 -67.1030 146° Southeast 468 539 31,000  Level FlightAware
01:21AM 12.0270 -67.0640 145° Southeast 468 539 31,000  Level FlightAware
01:21AM 11.9640 -67.0210 146° Southeast 469 540 31,000  Level FlightAware
01:22AM 11.8990 -66.9750 145° Southeast 469 540 31,000  Level FlightAware
01:23AM 11.8280 -66.9250 145° Southeast 470 541 31,000  Level FlightAware
01:23AM 11.7720 -66.8860 146° Southeast 470 541 31,000  Level FlightAware
01:24AM 11.7090 -66.8420 146° Southeast 470 541 31,000  Level FlightAware
01:24AM 11.6440 -66.7970 146° Southeast 473 544 31,000  Level FlightAware
01:25AM 11.5700 -66.7450 145° Southeast 470 541 31,000  Level FlightAware
01:25AM 11.5150 -66.7060 145° Southeast 473 544 31,000  Level FlightAware
01:26AM 11.4530 -66.6630 146° Southeast 473 544 31,000  Level FlightAware
01:27AM 11.3960 -66.6230 145° Southeast 474 545 31,000  Level FlightAware
01:27AM 11.3190 -66.5680 145° Southeast 469 540 31,000  Level FlightAware
01:28AM 11.2620 -66.5260 144° Southeast 469 540 31,000  Level FlightAware
01:28AM 11.2080 -66.4870 145° Southeast 469 540 31,000  Level FlightAware
01:29AM 11.1530 -66.4460 144° Southeast 469 540 31,000  Level FlightAware
01:30AM 11.1000 -66.4060 143° Southeast 469 540 31,000  Level FlightAware
01:30AM 11.0460 -66.3660 144° Southeast 469 540 31,000  Level FlightAware
01:31AM 10.9920 -66.3260 144° Southeast 469 540 31,000  Level FlightAware
01:32AM 10.9380 -66.2870 145° Southeast 469 540 31,000  Level FlightAware
01:32AM 10.8830 -66.2460 144° Southeast 469 540 31,000  Level FlightAware
01:33AM 10.8290 -66.2060 144° Southeast 469 540 31,000  Level FlightAware
01:33AM 10.7760 -66.1660 143° Southeast 469 540 31,000  Level FlightAware
01:34AM 10.7220 -66.1270 145° Southeast 469 540 31,000  Level FlightAware
01:35AM 10.6680 -66.0870 144° Southeast 469 540 31,000  Level FlightAware
01:35AM 10.6150 -66.0470 143° Southeast 469 540 31,000  Level FlightAware
01:36AM 10.5610 -66.0080 145° Southeast 469 540 31,000  Level FlightAware
01:36AM 10.5070 -65.9680 144° Southeast 469 540 31,000  Level FlightAware
01:37AM 10.4520 -65.9270 144° Southeast 469 540 31,000 -120 Level FlightAware
01:40AM 10.1737 -65.7308 145° Southeast  Level FlightAware Approximate
01:41AM 10.0652 -65.6545 145° Southeast  Level FlightAware Approximate
01:42AM 9.9567 -65.5782 145° Southeast  Level FlightAware Approximate
01:43AM 9.8482 -65.5019 145° Southeast  Level FlightAware Approximate
01:44AM 9.7397 -65.4257 145° Southeast  Level FlightAware Approximate
01:45AM 9.6311 -65.3496 145° Southeast  Level FlightAware Approximate
01:46AM 9.5226 -65.2735 145° Southeast  Level FlightAware Approximate
01:47AM 9.4140 -65.1974 145° Southeast  Level FlightAware Approximate
01:48AM 9.3054 -65.1214 145° Southeast  Level FlightAware Approximate
01:49AM 9.1968 -65.0455 145° Southeast  Level FlightAware Approximate
01:50AM 9.0882 -64.9696 145° Southeast  Level FlightAware Approximate
01:51AM 8.9795 -64.8937 145° Southeast  Level FlightAware Approximate
01:52AM 8.8709 -64.8179 145° Southeast  Level FlightAware Approximate
01:53AM 8.7622 -64.7421 145° Southeast  Level FlightAware Approximate
01:54AM 8.6535 -64.6664 145° Southeast  Level FlightAware Approximate
01:55AM 8.5448 -64.5907 145° Southeast  Level FlightAware Approximate
01:56AM 8.4361 -64.5151 145° Southeast  Level FlightAware Approximate
01:57AM 8.3274 -64.4395 145° Southeast  Level FlightAware Approximate
01:58AM 8.2186 -64.3639 145° Southeast  Level FlightAware Approximate
01:59AM 8.1099 -64.2884 145° Southeast  Level FlightAware Approximate
02:00AM 8.0011 -64.2130 146° Southeast  Level FlightAware Approximate
02:01AM 7.8923 -64.1375 146° Southeast  Level FlightAware Approximate
02:02AM 7.7835 -64.0621 146° Southeast  Level FlightAware Approximate
02:03AM 7.6747 -63.9868 146° Southeast  Level FlightAware Approximate
02:04AM 7.5659 -63.9115 146° Southeast  Level FlightAware Approximate
02:05AM 7.4571 -63.8362 146° Southeast  Level FlightAware Approximate
02:06AM 7.3482 -63.7610 146° Southeast  Level FlightAware Approximate
02:07AM 7.2394 -63.6858 146° Southeast  Level FlightAware Approximate
02:08AM 7.1305 -63.6106 146° Southeast  Level FlightAware Approximate
02:09AM 7.0216 -63.5355 146° Southeast  Level FlightAware Approximate
02:10AM 6.9127 -63.4604 146° Southeast  Level FlightAware Approximate
02:11AM 6.8038 -63.3853 146° Southeast  Level FlightAware Approximate
02:12AM 6.6949 -63.3103 146° Southeast  Level FlightAware Approximate
02:13AM 6.5859 -63.2353 146° Southeast  Level FlightAware Approximate
02:14AM 6.4770 -63.1603 146° Southeast  Level FlightAware Approximate
02:15AM 6.3680 -63.0854 146° Southeast  Level FlightAware Approximate
02:16AM 6.2590 -63.0105 146° Southeast  Level FlightAware Approximate
02:17AM 6.1501 -62.9356 146° Southeast  Level FlightAware Approximate
02:18AM 6.0411 -62.8608 146° Southeast  Level FlightAware Approximate
02:19AM 5.9321 -62.7860 146° Southeast  Level FlightAware Approximate
02:20AM 5.8231 -62.7112 146° Southeast  Level FlightAware Approximate
02:21AM 5.7140 -62.6365 146° Southeast  Level FlightAware Approximate
02:22AM 5.6050 -62.5618 146° Southeast  Level FlightAware Approximate
02:23AM 5.4960 -62.4871 146° Southeast  Level FlightAware Approximate
02:24AM 5.3869 -62.4124 146° Southeast  Level FlightAware Approximate
02:25AM 5.2779 -62.3378 146° Southeast  Level FlightAware Approximate
02:26AM 5.1688 -62.2632 146° Southeast  Level FlightAware Approximate
02:27AM 5.0597 -62.1886 146° Southeast  Level FlightAware Approximate
02:28AM 4.9507 -62.1140 146° Southeast  Level FlightAware Approximate
02:29AM 4.8416 -62.0395 146° Southeast  Level FlightAware Approximate
02:30AM 4.7325 -61.9650 146° Southeast  Level FlightAware Approximate
02:31AM 4.6234 -61.8905 146° Southeast  Level FlightAware Approximate
02:32AM 4.5142 -61.8161 146° Southeast  Level FlightAware Approximate
02:33AM 4.4051 -61.7416 146° Southeast  Level FlightAware Approximate
02:34AM 4.2960 -61.6672 146° Southeast  Level FlightAware Approximate
02:35AM 4.1869 -61.5928 146° Southeast  Level FlightAware Approximate
02:36AM 4.0777 -61.5184 146° Southeast  Level FlightAware Approximate
02:37AM 3.9686 -61.4440 146° Southeast  Level FlightAware Approximate
02:38AM 3.8594 -61.3697 146° Southeast  Level FlightAware Approximate
02:39AM 3.7503 -61.2954 146° Southeast  Level FlightAware Approximate
02:40AM 3.6411 -61.2211 146° Southeast  Level FlightAware Approximate
02:41AM 3.5319 -61.1468 146° Southeast  Level FlightAware Approximate
02:42AM 3.4227 -61.0726 146° Southeast  Level FlightAware Approximate
02:43AM 3.3135 -60.9983 146° Southeast  Level FlightAware Approximate
02:44AM 3.2043 -60.9241 146° Southeast  Level FlightAware Approximate
02:45AM 3.0951 -60.8499 146° Southeast  Level FlightAware Approximate
02:46AM 2.9859 -60.7757 146° Southeast  Level FlightAware Approximate
02:47AM 2.8767 -60.7015 146° Southeast  Level FlightAware Approximate
02:48AM 2.7613 -60.6379 153° Southeast  Level FlightAware Approximate
02:49AM 2.6437 -60.5778 153° Southeast  Level FlightAware Approximate
02:50AM 2.5270 -60.5181 153° Southeast  Level FlightAware Approximate
02:51AM 2.4103 -60.4585 153° Southeast  Level FlightAware Approximate
02:52AM 2.2936 -60.3988 153° Southeast  Level FlightAware Approximate
02:53AM 2.1769 -60.3391 153° Southeast  Level FlightAware Approximate
02:54AM 2.0601 -60.2795 153° Southeast  Level FlightAware Approximate
02:55AM 1.9434 -60.2198 153° Southeast  Level FlightAware Approximate
02:56AM 1.8267 -60.1602 153° Southeast  Level FlightAware Approximate
02:57AM 1.7099 -60.1006 153° Southeast  Level FlightAware Approximate
02:58AM 1.5932 -60.0410 153° Southeast  Level FlightAware Approximate
02:59AM 1.4765 -59.9814 153° Southeast  Level FlightAware Approximate
03:00AM 1.3598 -59.9218 153° Southeast  Level FlightAware Approximate
03:01AM 1.2430 -59.8622 153° Southeast  Level FlightAware Approximate
03:02AM 1.1263 -59.8026 153° Southeast  Level FlightAware Approximate
03:03AM 1.0095 -59.7430 153° Southeast  Level FlightAware Approximate
03:04AM 0.8928 -59.6834 153° Southeast  Level FlightAware Approximate
03:05AM 0.7761 -59.6239 153° Southeast  Level FlightAware Approximate
03:06AM 0.6593 -59.5643 153° Southeast  Level FlightAware Approximate
03:07AM 0.5426 -59.5047 153° Southeast  Level FlightAware Approximate
03:08AM 0.4258 -59.4451 153° Southeast  Level FlightAware Approximate
03:09AM 0.3091 -59.3856 153° Southeast  Level FlightAware Approximate
03:10AM 0.1924 -59.3260 153° Southeast  Level FlightAware Approximate
03:11AM 0.0756 -59.2664 153° Southeast  Level FlightAware Approximate
03:12AM -0.0411 -59.2069 153° Southeast  Level FlightAware Approximate
03:13AM -0.1579 -59.1473 153° Southeast  Level FlightAware Approximate
03:14AM -0.2746 -59.0878 153° Southeast  Level FlightAware Approximate
03:15AM -0.3913 -59.0282 153° Southeast  Level FlightAware Approximate
03:16AM -0.5081 -58.9686 153° Southeast  Level FlightAware Approximate
03:17AM -0.6248 -58.9090 153° Southeast  Level FlightAware Approximate
03:18AM -0.7416 -58.8495 153° Southeast  Level FlightAware Approximate
03:19AM -0.8583 -58.7899 153° Southeast  Level FlightAware Approximate
03:20AM -0.9750 -58.7303 153° Southeast  Level FlightAware Approximate
03:21AM -1.0918 -58.6707 153° Southeast  Level FlightAware Approximate
03:22AM -1.2085 -58.6111 153° Southeast  Level FlightAware Approximate
03:23AM -1.3253 -58.5516 153° Southeast  Level FlightAware Approximate
03:24AM -1.4420 -58.4920 153° Southeast  Level FlightAware Approximate
03:25AM -1.5587 -58.4324 153° Southeast  Level FlightAware Approximate
03:26AM -1.6755 -58.3727 153° Southeast  Level FlightAware Approximate
03:27AM -1.7918 -58.3133 153° Southeast  Level FlightAware Approximate
03:28AM -1.9081 -58.2539 153° Southeast  Level FlightAware Approximate
03:29AM -2.0245 -58.1945 153° Southeast  Level FlightAware Approximate
03:30AM -2.1408 -58.1350 153° Southeast  Level FlightAware Approximate
03:31AM -2.2571 -58.0756 153° Southeast  Level FlightAware Approximate
03:32AM -2.3734 -58.0161 153° Southeast  Level FlightAware Approximate
03:33AM -2.4897 -57.9567 153° Southeast  Level FlightAware Approximate
03:34AM -2.6061 -57.8972 153° Southeast  Level FlightAware Approximate
03:35AM -2.7224 -57.8377 153° Southeast  Level FlightAware Approximate
03:36AM -2.8387 -57.7782 153° Southeast  Level FlightAware Approximate
03:37AM -2.9550 -57.7187 153° Southeast  Level FlightAware Approximate
03:38AM -3.0715 -57.6590 153° Southeast  Level FlightAware Approximate
03:39AM -3.1880 -57.5994 153° Southeast  Level FlightAware Approximate
03:40AM -3.3045 -57.5398 153° Southeast  Level FlightAware Approximate
03:41AM -3.4210 -57.4801 153° Southeast  Level FlightAware Approximate
03:42AM -3.5375 -57.4204 153° Southeast  Level FlightAware Approximate
03:43AM -3.6539 -57.3607 153° Southeast  Level FlightAware Approximate
03:44AM -3.7704 -57.3010 153° Southeast  Level FlightAware Approximate
03:45AM -3.8869 -57.2413 153° Southeast  Level FlightAware Approximate
03:46AM -4.0034 -57.1815 153° Southeast  Level FlightAware Approximate
03:47AM -4.1199 -57.1218 153° Southeast  Level FlightAware Approximate
03:48AM -4.2363 -57.0620 153° Southeast  Level FlightAware Approximate
03:49AM -4.3528 -57.0022 153° Southeast  Level FlightAware Approximate
03:50AM -4.4692 -56.9424 153° Southeast  Level FlightAware Approximate
03:51AM -4.5857 -56.8825 153° Southeast  Level FlightAware Approximate
03:52AM -4.7021 -56.8227 153° Southeast  Level FlightAware Approximate
03:53AM -4.8186 -56.7628 153° Southeast  Level FlightAware Approximate
03:54AM -4.9350 -56.7029 153° Southeast  Level FlightAware Approximate
03:55AM -5.0514 -56.6430 153° Southeast  Level FlightAware Approximate
03:56AM -5.1678 -56.5831 153° Southeast  Level FlightAware Approximate
03:57AM -5.2842 -56.5231 153° Southeast  Level FlightAware Approximate
03:58AM -5.4007 -56.4631 153° Southeast  Level FlightAware Approximate
03:59AM -5.5171 -56.4031 153° Southeast  Level FlightAware Approximate
04:00AM -5.6335 -56.3431 153° Southeast  Level FlightAware Approximate
04:01AM -5.7499 -56.2830 153° Southeast  Level FlightAware Approximate
04:02AM -5.8663 -56.2229 153° Southeast  Level FlightAware Approximate
04:03AM -5.9826 -56.1628 153° Southeast  Level FlightAware Approximate
04:04AM -6.0990 -56.1027 153° Southeast  Level FlightAware Approximate
04:05AM -6.2154 -56.0426 153° Southeast  Level FlightAware Approximate
04:06AM -6.3317 -55.9824 153° Southeast  Level FlightAware Approximate
04:07AM -6.4481 -55.9222 153° Southeast  Level FlightAware Approximate
04:08AM -6.5644 -55.8619 153° Southeast  Level FlightAware Approximate
04:09AM -6.6808 -55.8017 153° Southeast  Level FlightAware Approximate
04:10AM -6.7971 -55.7414 153° Southeast  Level FlightAware Approximate
04:11AM -6.9134 -55.6811 153° Southeast  Level FlightAware Approximate
04:12AM -7.0297 -55.6207 153° Southeast  Level FlightAware Approximate
04:13AM -7.1460 -55.5603 153° Southeast  Level FlightAware Approximate
04:14AM -7.2624 -55.4999 153° Southeast  Level FlightAware Approximate
04:15AM -7.3786 -55.4395 153° Southeast  Level FlightAware Approximate
04:16AM -7.4949 -55.3790 153° Southeast  Level FlightAware Approximate
04:17AM -7.6112 -55.3185 153° Southeast  Level FlightAware Approximate
04:18AM -7.7275 -55.2580 153° Southeast  Level FlightAware Approximate
04:19AM -7.8437 -55.1974 153° Southeast  Level FlightAware Approximate
04:20AM -7.9600 -55.1368 153° Southeast  Level FlightAware Approximate
04:21AM -8.0762 -55.0761 153° Southeast  Level FlightAware Approximate
04:22AM -8.1925 -55.0155 153° Southeast  Level FlightAware Approximate
04:23AM -8.3087 -54.9548 153° Southeast  Level FlightAware Approximate
04:24AM -8.4249 -54.8940 153° Southeast  Level FlightAware Approximate
04:25AM -8.5411 -54.8332 153° Southeast  Level FlightAware Approximate
04:26AM -8.6573 -54.7724 153° Southeast  Level FlightAware Approximate
04:27AM -8.7530 -54.7223 153° Southeast  Level FlightAware Approximate
04:28AM -8.8487 -54.6721 153° Southeast  Level FlightAware Approximate
04:29AM -8.9444 -54.6219 153° Southeast  Level FlightAware Approximate
04:30AM -9.0401 -54.5717 153° Southeast  Level FlightAware Approximate
04:31AM -9.1358 -54.5215 153° Southeast  Level FlightAware Approximate
04:32AM -9.2314 -54.4712 153° Southeast  Level FlightAware Approximate
04:33AM -9.3271 -54.4210 153° Southeast  Level FlightAware Approximate
04:34AM -9.4228 -54.3706 153° Southeast  Level FlightAware Approximate
04:35AM -9.5184 -54.3203 153° Southeast  Level FlightAware Approximate
04:36AM -9.6140 -54.2699 153° Southeast  Level FlightAware Approximate
04:37AM -9.7097 -54.2195 153° Southeast  Level FlightAware Approximate
04:38AM -9.8053 -54.1691 153° Southeast  Level FlightAware Approximate
04:39AM -9.9009 -54.1186 153° Southeast  Level FlightAware Approximate
04:40AM -9.9965 -54.0681 153° Southeast  Level FlightAware Approximate
04:41AM -10.0921 -54.0176 153° Southeast  Level FlightAware Approximate
04:42AM -10.1877 -53.9671 153° Southeast  Level FlightAware Approximate
04:43AM -10.2833 -53.9165 152° Southeast  Level FlightAware Approximate
04:43AM -3.5070 -59.3770 152° Southeast 417 480 18,600  Level FlightAware
04:44AM -10.3789 -53.8659 152° Southeast  Level FlightAware Approximate
04:44AM -3.4680 -59.4330 305° West 412 474 17,400  Level FlightAware
04:44AM -3.4340 -59.4830 304° West 409 471 16,400 -1,860 Descending FlightAware
04:45AM -3.3930 -59.5430 304° West 403 464 15,200 -1,980 Descending FlightAware
04:45AM -3.3640 -59.5930 300° West 399 459 14,100 -2,340 Descending FlightAware
04:46AM -3.3480 -59.6570 284° West 387 445 12,600 -2,100 Descending FlightAware
04:47AM -3.3310 -59.7180 286° West 380 437 11,600 -1,620 Descending FlightAware
04:47AM -3.3140 -59.7790 286° West 371 427 10,700 -1,080 Descending FlightAware
04:48AM -3.3000 -59.8300 285° West 350 403 10,400 -660 Descending FlightAware
04:48AM -3.2860 -59.8850 284° West 328 377 10,000 -660 Descending FlightAware
04:49AM -3.2780 -59.9140 285° West 318 366 9,800 -720 Descending FlightAware
04:49AM -3.2700 -59.9470 284° West 309 356 9,500 -1,020 Descending FlightAware
04:49AM -3.2590 -59.9730 293° West 304 350 9,100 -1,200 Descending FlightAware
04:50AM -3.2450 -59.9990 298° West 301 346 8,700 -1,200 Descending FlightAware
04:50AM -3.2320 -60.0220 300° West 299 344 8,300 -1,260 Descending FlightAware
04:50AM -3.2160 -60.0510 299° West 298 343 7,800 -1,260 Descending FlightAware
04:51AM -3.2040 -60.0730 299° West 297 342 7,400 -1,680 Descending FlightAware
04:51AM -3.1900 -60.0990 298° West 285 328 6,700 -1,620 Descending FlightAware
04:51AM -3.1770 -60.1220 300° West 268 308 6,300 -1,260 Descending FlightAware
04:52AM -3.1640 -60.1470 298° West 245 282 5,800 -1,260 Descending FlightAware
04:52AM -3.1540 -60.1660 298° West 226 260 5,400 -1,380 Descending FlightAware
04:53AM -3.1450 -60.1830 298° West 214 246 4,900 -1,740 Descending FlightAware
04:53AM -3.1350 -60.2000 301° West 208 239 4,300 -1,740 Descending FlightAware
04:53AM -3.1290 -60.2060 315° West 202 232 4,100 -1,500 Descending FlightAware
04:53AM -3.1260 -60.2070 342° North 201 231 4,000 -2,160 Descending FlightAware
04:53AM -3.1170 -60.2110 336° Northwest 198 228 3,600 -1,800 Descending FlightAware
04:54AM -3.0960 -60.2170 344° North 201 231 3,000 -1,380 Descending FlightAware
04:54AM -3.0860 -60.2200 343° North 199 229 2,800 -1,080 Descending FlightAware
04:54AM -3.0720 -60.2230 348° North 192 221 2,500 -840 Descending FlightAware
04:54AM -3.0570 -60.2160 25° Northeast 175 201 2,300 -660 Descending FlightAware
04:55AM -3.0530 -60.2120 45° Northeast 172 198 2,200 -480 Descending FlightAware
04:55AM -3.0430 -60.1980 54° Northeast 170 196 2,100 -240 Descending FlightAware
04:55AM -3.0400 -60.1900 69° East 168 193 2,100  Level FlightAware
04:55AM -3.0380 -60.1820 76° East 169 194 2,100  Level FlightAware
04:56AM -3.0380 -60.1690 90° East 169 194 2,100 -180 Level FlightAware
04:56AM -3.0380 -60.1520 90° East 166 191 2,000 -600 Descending FlightAware
04:56AM -3.0380 -60.1370 90° East 159 183 1,700 -840 Descending FlightAware
04:57AM -3.0380 -60.1200 90° East 149 171 1,400 -720 Descending FlightAware
04:57AM -3.0380 -60.1060 90° East 148 170 1,200 -780 Descending FlightAware
04:57AM -3.0380 -60.0910 90° East 150 173 900 -840 Descending FlightAware
04:58AM -3.0390 -60.0710 93° East 154 177 500 -420 Descending FlightAware
04:58AM -3.0390 -60.0540 90° East 154 177 500  Level FlightAware
05:01AM -3.2424 -59.9285 148° Southeast  Level Estimated
05:02AM -3.3341 -59.8719 148° Southeast  Level Estimated
05:03AM -3.4259 -59.8152 148° Southeast  Level Estimated
05:04AM -3.5176 -59.7586 148° Southeast  Level Estimated
05:05AM -3.6093 -59.7019 148° Southeast  Level Estimated
05:06AM -3.7011 -59.6452 148° Southeast  Level Estimated
05:07AM -3.7928 -59.5885 148° Southeast  Level Estimated
05:08AM -3.8845 -59.5318 148° Southeast  Level Estimated
05:09AM -3.9763 -59.4751 148° Southeast  Level Estimated
05:10AM -4.0680 -59.4184 148° Southeast  Level Estimated
05:11AM -4.1597 -59.3617 148° Southeast  Level Estimated
05:12AM -4.2514 -59.3049 148° Southeast  Level Estimated
05:13AM -4.3431 -59.2481 148° Southeast  Level Estimated
05:14AM -4.4348 -59.1914 148° Southeast  Level Estimated
05:15AM -4.5265 -59.1346 148° Southeast  Level Estimated
05:16AM -4.6182 -59.0778 148° Southeast  Level Estimated
05:17AM -4.7099 -59.0209 148° Southeast  Level Estimated
05:18AM -4.8016 -58.9641 148° Southeast  Level Estimated
05:19AM -4.8932 -58.9072 148° Southeast  Level Estimated
05:20AM -4.9849 -58.8504 148° Southeast  Level Estimated
05:21AM -5.0766 -58.7935 148° Southeast  Level Estimated
05:22AM -5.1683 -58.7366 148° Southeast  Level Estimated
05:23AM -5.2599 -58.6797 148° Southeast  Level Estimated
05:24AM -5.3516 -58.6227 148° Southeast  Level Estimated
05:25AM -5.4432 -58.5658 148° Southeast  Level Estimated
05:26AM -5.5349 -58.5088 148° Southeast  Level Estimated
05:27AM -5.6265 -58.4518 148° Southeast  Level Estimated
05:28AM -5.7181 -58.3948 148° Southeast  Level Estimated
05:29AM -5.8098 -58.3378 148° Southeast  Level Estimated
05:30AM -5.9014 -58.2808 148° Southeast  Level Estimated
05:31AM -5.9930 -58.2237 148° Southeast  Level Estimated
05:32AM -6.0846 -58.1666 148° Southeast  Level Estimated
05:33AM -6.1762 -58.1095 148° Southeast  Level Estimated
05:34AM -6.2678 -58.0524 148° Southeast  Level Estimated
05:35AM -6.3594 -57.9953 148° Southeast  Level Estimated
05:36AM -6.4510 -57.9381 148° Southeast  Level Estimated
05:37AM -6.5426 -57.8809 148° Southeast  Level Estimated
05:38AM -6.6341 -57.8237 148° Southeast  Level Estimated
05:39AM -6.7257 -57.7665 148° Southeast  Level Estimated
05:40AM -6.8173 -57.7093 148° Southeast  Level Estimated
05:41AM -6.9088 -57.6520 148° Southeast  Level Estimated
05:42AM -7.0004 -57.5947 148° Southeast  Level Estimated
05:43AM -7.0919 -57.5374 148° Southeast  Level Estimated
05:44AM -7.1834 -57.4801 148° Southeast  Level Estimated
05:45AM -7.2750 -57.4227 148° Southeast  Level Estimated
05:46AM -7.3665 -57.3653 148° Southeast  Level Estimated
05:47AM -7.4580 -57.3079 148° Southeast  Level Estimated
05:48AM -7.5495 -57.2505 148° Southeast  Level Estimated
05:49AM -7.6410 -57.1931 148° Southeast  Level Estimated
05:50AM -7.7325 -57.1356 148° Southeast  Level Estimated
05:51AM -7.8239 -57.0781 148° Southeast  Level Estimated
05:52AM -7.9154 -57.0206 148° Southeast  Level Estimated
05:53AM -8.0069 -56.9630 148° Southeast  Level Estimated
05:54AM -8.0983 -56.9054 148° Southeast  Level Estimated
05:55AM -8.1898 -56.8478 148° Southeast  Level Estimated
05:56AM -8.2812 -56.7902 148° Southeast  Level Estimated
05:57AM -8.3727 -56.7325 148° Southeast  Level Estimated
05:58AM -8.4641 -56.6749 148° Southeast  Level Estimated
05:59AM -8.5555 -56.6171 148° Southeast  Level Estimated
06:00AM -8.6469 -56.5594 148° Southeast  Level Estimated
06:01AM -8.7383 -56.5016 148° Southeast  Level Estimated
06:02AM -8.8297 -56.4439 148° Southeast  Level Estimated
06:03AM -8.9211 -56.3860 148° Southeast  Level Estimated
06:04AM -9.0125 -56.3282 148° Southeast  Level Estimated
06:05AM -9.1038 -56.2703 148° Southeast  Level Estimated
06:06AM -9.1952 -56.2124 148° Southeast  Level Estimated
06:07AM -9.2865 -56.1544 148° Southeast  Level Estimated
06:08AM -9.3778 -56.0965 148° Southeast  Level Estimated
06:09AM -9.4692 -56.0385 148° Southeast  Level Estimated
06:10AM -9.5605 -55.9804 148° Southeast  Level Estimated
06:11AM -9.6518 -55.9224 148° Southeast  Level Estimated
06:12AM -9.7431 -55.8643 148° Southeast  Level Estimated
06:13AM -9.8344 -55.8062 148° Southeast  Level Estimated
06:14AM -9.9257 -55.7480 148° Southeast  Level Estimated
06:15AM -10.0169 -55.6898 148° Southeast  Level Estimated
06:16AM -10.1082 -55.6316 148° Southeast  Level Estimated
06:17AM -10.1994 -55.5733 148° Southeast  Level Estimated
06:18AM -10.2907 -55.5150 148° Southeast  Level Estimated
06:19AM -10.3819 -55.4567 148° Southeast  Level Estimated
06:20AM -10.4731 -55.3983 148° Southeast  Level Estimated
06:21AM -10.5643 -55.3400 148° Southeast  Level Estimated
06:22AM -10.6555 -55.2815 148° Southeast  Level Estimated
06:23AM -10.7467 -55.2231 148° Southeast  Level Estimated
06:24AM -10.8379 -55.1646 148° Southeast  Level Estimated
06:25AM -10.9290 -55.1060 148° Southeast  Level Estimated
06:26AM -11.0202 -55.0475 148° Southeast  Level Estimated
06:27AM -11.1113 -54.9889 148° Southeast  Level Estimated
06:28AM -11.2024 -54.9302 148° Southeast  Level Estimated
06:29AM -11.2936 -54.8715 148° Southeast  Level Estimated
06:30AM -11.3847 -54.8128 148° Southeast  Level Estimated
06:31AM -11.4757 -54.7541 148° Southeast  Level Estimated
06:32AM -11.5668 -54.6953 148° Southeast  Level Estimated
06:33AM -11.6579 -54.6365 148° Southeast  Level Estimated
06:34AM -11.7490 -54.5776 148° Southeast  Level Estimated
06:35AM -11.8400 -54.5187 148° Southeast  Level Estimated
06:36AM -11.9310 -54.4597 148° Southeast  Level Estimated
06:37AM -12.0220 -54.4007 148° Southeast  Level Estimated
06:38AM -12.1131 -54.3417 148° Southeast  Level Estimated
06:39AM -12.2041 -54.2826 148° Southeast  Level Estimated
06:40AM -12.2950 -54.2235 148° Southeast  Level Estimated
06:41AM -12.3860 -54.1644 148° Southeast  Level Estimated
06:42AM -12.4770 -54.1052 148° Southeast  Level Estimated
06:43AM -12.5679 -54.0460 148° Southeast  Level Estimated
06:44AM -12.6588 -53.9867 148° Southeast  Level Estimated
06:45AM -12.7498 -53.9274 148° Southeast  Level Estimated
06:46AM -12.8407 -53.8680 148° Southeast  Level Estimated
06:47AM -12.9316 -53.8086 148° Southeast  Level Estimated
06:48AM -13.0224 -53.7492 147° Southeast  Level Estimated
06:49AM -13.1133 -53.6897 147° Southeast  Level Estimated
06:50AM -13.2041 -53.6301 147° Southeast  Level Estimated
06:51AM -13.2950 -53.5706 147° Southeast  Level Estimated
06:52AM -13.3858 -53.5109 147° Southeast  Level Estimated
06:53AM -13.4766 -53.4513 147° Southeast  Level Estimated
06:54AM -13.5674 -53.3916 147° Southeast  Level Estimated
06:55AM -13.6582 -53.3318 147° Southeast  Level Estimated
06:56AM -13.7490 -53.2720 147° Southeast  Level Estimated
06:57AM -13.8397 -53.2122 147° Southeast  Level Estimated
06:58AM -13.9305 -53.1522 147° Southeast  Level Estimated
06:59AM -14.0212 -53.0923 147° Southeast  Level Estimated
07:00AM -14.1119 -53.0323 147° Southeast  Level Estimated
07:01AM -14.2026 -52.9723 147° Southeast  Level Estimated
07:02AM -14.2933 -52.9122 147° Southeast  Level Estimated
07:03AM -14.3839 -52.8521 147° Southeast  Level Estimated
07:04AM -14.4746 -52.7919 147° Southeast  Level Estimated
07:05AM -14.5652 -52.7316 147° Southeast  Level Estimated
07:06AM -14.6558 -52.6714 147° Southeast  Level Estimated
07:07AM -14.7464 -52.6110 147° Southeast  Level Estimated
07:08AM -14.8370 -52.5507 147° Southeast  Level Estimated
07:09AM -14.9276 -52.4902 147° Southeast  Level Estimated
07:10AM -15.0181 -52.4297 147° Southeast  Level Estimated
07:11AM -15.1087 -52.3692 147° Southeast  Level Estimated
07:11AM -3.0390 -60.0370 147° Southeast 189 217 600  Level FlightAware
07:11AM -3.0390 -60.0190 90° East 187 215 1,900 3,360 Climbing FlightAware
07:11AM -3.0390 -60.0040 90° East 179 206 2,900 2,700 Climbing FlightAware
07:12AM -3.0420 -59.9890 101° East 185 213 3,600 2,820 Climbing FlightAware
07:12AM -3.0440 -59.9860 124° Southeast 189 217 3,800 2,160 Climbing FlightAware
07:12AM -3.0490 -59.9810 135° Southeast 199 229 4,000 1,080 Climbing FlightAware
07:12AM -3.0560 -59.9760 145° Southeast 213 245 4,100 1,080 Climbing FlightAware
07:12AM -3.0620 -59.9730 153° Southeast 225 259 4,300 1,080 Climbing FlightAware
07:12AM -3.0770 -59.9660 155° Southeast 252 290 4,500 1,560 Climbing FlightAware
07:13AM -3.1010 -59.9560 157° South 272 313 5,200 2,520 Climbing FlightAware
07:13AM -3.1220 -59.9450 152° Southeast 275 316 6,200 3,120 Climbing FlightAware
07:13AM -3.1450 -59.9340 154° Southeast 277 319 7,300 3,300 Climbing FlightAware
07:14AM -3.1700 -59.9220 154° Southeast 283 326 8,400 3,000 Climbing FlightAware
07:14AM -3.1980 -59.9080 153° Southeast 290 334 9,500 2,880 Climbing FlightAware
07:15AM -3.2430 -59.8870 155° Southeast 298 343 11,300 2,100 Climbing FlightAware
07:15AM -3.2860 -59.8660 154° Southeast 345 397 11,900 1,560 Climbing FlightAware
07:16AM -3.3420 -59.8400 155° Southeast 382 440 13,100 2,460 Climbing FlightAware
07:16AM -3.4010 -59.8100 153° Southeast 393 452 14,900 2,760 Climbing FlightAware
07:17AM -3.4600 -59.7800 153° Southeast 408 470 16,400 2,340 Climbing FlightAware
07:17AM -3.5160 -59.7540 155° Southeast 422 486 17,600 2,580 Climbing FlightAware
07:18AM -3.5800 -59.7240 155° Southeast 423 487 19,400 2,640 Climbing FlightAware
07:19AM -3.6480 -59.6890 153° Southeast 436 502 20,900 2,280 Climbing FlightAware
07:19AM -3.7030 -59.6620 154° Southeast 444 511 22,000 2,100 Climbing FlightAware
07:20AM -3.7740 -59.6280 154° Southeast 454 522 23,300 1,920 Climbing FlightAware
07:20AM -3.8400 -59.5960 154° Southeast 464 534 24,400 1,860 Climbing FlightAware
07:21AM -3.9080 -59.5640 155° Southeast 472 543 25,500 840 Climbing FlightAware
07:22AM -3.9740 -59.5310 153° Southeast 472 543 25,500 1,320 Level FlightAware
07:23AM -4.0940 -59.4730 154° Southeast 486 559 27,700 1,380 Climbing FlightAware
07:23AM -4.1550 -59.4430 154° Southeast 486 559 27,700  Level FlightAware
07:24AM -4.2170 -59.4130 154° Southeast 486 559 27,700  Level FlightAware
07:24AM -4.2810 -59.3820 154° Southeast 486 559 27,700  Level FlightAware
07:25AM -4.3430 -59.3510 154° Southeast 486 559 27,700  Level FlightAware
07:26AM -4.4050 -59.3210 154° Southeast 486 559 27,700  Level FlightAware
07:28AM -4.5788 -59.2124 148° Southeast  Level Estimated
07:29AM -4.6703 -59.1553 148° Southeast  Level Estimated
07:30AM -4.7618 -59.0981 148° Southeast  Level Estimated
07:31AM -4.8532 -59.0409 148° Southeast  Level Estimated
07:32AM -4.9447 -58.9837 148° Southeast  Level Estimated
07:33AM -5.0362 -58.9265 148° Southeast  Level Estimated
07:34AM -5.1276 -58.8692 148° Southeast  Level Estimated
07:35AM -5.2191 -58.8120 148° Southeast  Level Estimated
07:36AM -5.3105 -58.7547 148° Southeast  Level Estimated
07:37AM -5.4019 -58.6974 148° Southeast  Level Estimated
07:38AM -5.4934 -58.6401 148° Southeast  Level Estimated
07:39AM -5.5848 -58.5827 148° Southeast  Level Estimated
07:40AM -5.6762 -58.5254 148° Southeast  Level Estimated
07:41AM -5.7676 -58.4680 148° Southeast  Level Estimated
07:42AM -5.8590 -58.4107 148° Southeast  Level Estimated
07:43AM -5.9504 -58.3533 148° Southeast  Level Estimated
07:44AM -6.0418 -58.2958 148° Southeast  Level Estimated
07:45AM -6.1332 -58.2384 148° Southeast  Level Estimated
07:46AM -6.2246 -58.1810 148° Southeast  Level Estimated
07:47AM -6.3160 -58.1235 148° Southeast  Level Estimated
07:48AM -6.4074 -58.0660 148° Southeast  Level Estimated
07:49AM -6.4987 -58.0084 148° Southeast  Level Estimated
07:50AM -6.5901 -57.9509 148° Southeast  Level Estimated
07:51AM -6.6814 -57.8933 148° Southeast  Level Estimated
07:52AM -6.7728 -57.8358 148° Southeast  Level Estimated
07:53AM -6.8641 -57.7782 148° Southeast  Level Estimated
07:54AM -6.9555 -57.7205 148° Southeast  Level Estimated
07:55AM -7.0468 -57.6629 148° Southeast  Level Estimated
07:56AM -7.1381 -57.6052 148° Southeast  Level Estimated
07:57AM -7.2294 -57.5475 148° Southeast  Level Estimated
07:58AM -7.3207 -57.4898 148° Southeast  Level Estimated
07:59AM -7.4120 -57.4321 148° Southeast  Level Estimated
08:00AM -7.5033 -57.3743 148° Southeast  Level Estimated
08:01AM -7.5946 -57.3165 148° Southeast  Level Estimated
08:02AM -7.6859 -57.2587 148° Southeast  Level Estimated
08:03AM -7.7771 -57.2009 148° Southeast  Level Estimated
08:04AM -7.8684 -57.1430 148° Southeast  Level Estimated
08:05AM -7.9596 -57.0851 148° Southeast  Level Estimated
08:06AM -8.0509 -57.0272 148° Southeast  Level Estimated
08:07AM -8.1421 -56.9692 148° Southeast  Level Estimated
08:08AM -8.2333 -56.9113 148° Southeast  Level Estimated
08:09AM -8.3246 -56.8533 148° Southeast  Level Estimated
08:10AM -8.4158 -56.7952 148° Southeast  Level Estimated
08:11AM -8.5070 -56.7372 148° Southeast  Level Estimated
08:12AM -8.5982 -56.6791 148° Southeast  Level Estimated
08:13AM -8.6893 -56.6210 148° Southeast  Level Estimated
08:14AM -8.7805 -56.5629 148° Southeast  Level Estimated
08:15AM -8.8717 -56.5047 148° Southeast  Level Estimated
08:16AM -8.9628 -56.4465 148° Southeast  Level Estimated
08:17AM -9.0540 -56.3883 148° Southeast  Level Estimated
08:18AM -9.1451 -56.3301 148° Southeast  Level Estimated
08:19AM -9.2363 -56.2718 148° Southeast  Level Estimated
08:20AM -9.3274 -56.2135 148° Southeast  Level Estimated
08:21AM -9.4185 -56.1551 148° Southeast  Level Estimated
08:22AM -9.5096 -56.0968 148° Southeast  Level Estimated
08:23AM -9.6007 -56.0384 148° Southeast  Level Estimated
08:24AM -9.6918 -55.9799 148° Southeast  Level Estimated
08:25AM -9.7828 -55.9215 148° Southeast  Level Estimated
08:26AM -9.8739 -55.8630 148° Southeast  Level Estimated
08:27AM -9.9649 -55.8044 148° Southeast  Level Estimated
08:28AM -10.0560 -55.7459 148° Southeast  Level Estimated
08:29AM -10.1470 -55.6873 148° Southeast  Level Estimated
08:30AM -10.2380 -55.6286 148° Southeast  Level Estimated
08:31AM -10.3290 -55.5700 148° Southeast  Level Estimated
08:32AM -10.4200 -55.5113 148° Southeast  Level Estimated
08:33AM -10.5110 -55.4525 148° Southeast  Level Estimated
08:34AM -10.6020 -55.3938 148° Southeast  Level Estimated
08:35AM -10.6930 -55.3350 148° Southeast  Level Estimated
08:36AM -10.7839 -55.2761 148° Southeast  Level Estimated
08:37AM -10.8749 -55.2173 148° Southeast  Level Estimated
08:38AM -10.9658 -55.1584 148° Southeast  Level Estimated
08:39AM -11.0567 -55.0994 148° Southeast  Level Estimated
08:40AM -11.1476 -55.0404 148° Southeast  Level Estimated
08:41AM -11.2385 -54.9814 148° Southeast  Level Estimated
08:42AM -11.3294 -54.9224 148° Southeast  Level Estimated
08:43AM -11.4203 -54.8633 147° Southeast  Level Estimated
08:44AM -11.5112 -54.8041 147° Southeast  Level Estimated
08:45AM -11.6020 -54.7450 147° Southeast  Level Estimated
08:46AM -11.6929 -54.6858 147° Southeast  Level Estimated
08:47AM -11.7837 -54.6265 147° Southeast  Level Estimated
08:48AM -11.8745 -54.5672 147° Southeast  Level Estimated
08:49AM -11.9653 -54.5079 147° Southeast  Level Estimated
08:50AM -12.0561 -54.4486 147° Southeast  Level Estimated
08:51AM -12.1469 -54.3892 147° Southeast  Level Estimated
08:52AM -12.2376 -54.3297 147° Southeast  Level Estimated
08:53AM -12.3284 -54.2702 147° Southeast  Level Estimated
08:54AM -12.4191 -54.2107 147° Southeast  Level Estimated
08:55AM -12.5099 -54.1511 147° Southeast  Level Estimated
08:56AM -12.6006 -54.0915 147° Southeast  Level Estimated
08:57AM -12.6913 -54.0319 147° Southeast  Level Estimated
08:58AM -12.7820 -53.9722 147° Southeast  Level Estimated
08:59AM -12.8726 -53.9124 147° Southeast  Level Estimated
09:00AM -12.9633 -53.8527 147° Southeast  Level Estimated
09:01AM -13.0540 -53.7929 147° Southeast  Level Estimated
09:02AM -13.1446 -53.7330 147° Southeast  Level Estimated
09:03AM -13.2352 -53.6731 147° Southeast  Level Estimated
09:04AM -13.3258 -53.6131 147° Southeast  Level Estimated
09:05AM -13.4164 -53.5531 147° Southeast  Level Estimated
09:06AM -13.5070 -53.4931 147° Southeast  Level Estimated
09:07AM -13.5975 -53.4330 147° Southeast  Level Estimated
09:08AM -13.6881 -53.3728 147° Southeast  Level Estimated
09:09AM -13.7786 -53.3126 147° Southeast  Level Estimated
09:10AM -13.8691 -53.2524 147° Southeast  Level Estimated
09:11AM -13.9596 -53.1921 147° Southeast  Level Estimated
09:12AM -14.0501 -53.1318 147° Southeast  Level Estimated
09:13AM -14.1406 -53.0714 147° Southeast  Level Estimated
09:14AM -14.2310 -53.0110 147° Southeast  Level Estimated
09:15AM -14.3215 -52.9505 147° Southeast  Level Estimated
09:16AM -14.4119 -52.8900 147° Southeast  Level Estimated
09:17AM -14.5023 -52.8294 147° Southeast  Level Estimated
09:18AM -14.5927 -52.7688 147° Southeast  Level Estimated
09:19AM -14.6831 -52.7082 147° Southeast  Level Estimated
09:20AM -14.7735 -52.6474 147° Southeast  Level Estimated
09:21AM -14.8638 -52.5867 147° Southeast  Level Estimated
09:22AM -14.9542 -52.5258 147° Southeast  Level Estimated
09:23AM -15.0445 -52.4650 147° Southeast  Level Estimated
09:24AM -15.1348 -52.4041 147° Southeast  Level Estimated
09:25AM -15.2251 -52.3431 147° Southeast  Level Estimated
09:26AM -15.3153 -52.2821 147° Southeast  Level Estimated
09:26AM -18.7100 -50.1130 147° Southeast 509 586 29,900  Level FlightAware
09:27AM -15.4056 -52.2210 147° Southeast  Level Estimated
09:27AM -18.7780 -50.0570 142° Southeast 501 577 29,400  Level FlightAware
09:27AM -18.8370 -50.0090 142° Southeast 500 575 29,000 -360 Descending FlightAware
09:28AM -18.9200 -49.9420 143° Southeast 499 574 29,000  Level FlightAware
09:29AM -18.9870 -49.8880 143° Southeast 499 574 29,000  Level FlightAware
09:29AM -19.0400 -49.8450 143° Southeast 499 574 29,000  Level FlightAware
09:30AM -19.1110 -49.7870 142° Southeast 497 572 29,000  Level FlightAware
09:30AM -19.1770 -49.7320 142° Southeast 498 573 29,000  Level FlightAware
09:31AM -19.2350 -49.6840 142° Southeast 498 573 29,000  Level FlightAware
09:32AM -19.2990 -49.6300 141° Southeast 498 573 29,000  Level FlightAware
09:32AM -19.3630 -49.5760 141° Southeast 499 574 29,000  Level FlightAware
09:33AM -19.4200 -49.5280 142° Southeast 491 565 29,000  Level FlightAware
09:33AM -19.4870 -49.4720 142° Southeast 474 545 29,000  Level FlightAware
09:34AM -19.5460 -49.4220 141° Southeast 472 543 29,000  Level FlightAware
09:34AM -19.6110 -49.3670 141° Southeast 473 544 29,000  Level FlightAware
09:35AM -19.6670 -49.3200 142° Southeast 473 544 29,000  Level FlightAware
09:36AM -19.7280 -49.2680 141° Southeast 473 544 29,000  Level FlightAware
09:36AM -19.7890 -49.2160 141° Southeast 473 544 29,000  Level FlightAware
09:37AM -19.8480 -49.1670 142° Southeast 473 544 29,000  Level FlightAware
09:37AM -19.9060 -49.1180 142° Southeast 472 543 29,000  Level FlightAware
09:38AM -19.9660 -49.0660 141° Southeast 470 541 29,000  Level FlightAware
09:39AM -20.0280 -49.0140 142° Southeast 468 539 29,000  Level FlightAware
09:39AM -20.0840 -48.9660 141° Southeast 468 539 29,000  Level FlightAware
09:40AM -20.1450 -48.9150 142° Southeast 468 539 29,000  Level FlightAware
09:40AM -20.2060 -48.8630 141° Southeast 467 537 29,000  Level FlightAware
09:41AM -20.2610 -48.8160 141° Southeast 468 539 29,000  Level FlightAware
09:41AM -20.3190 -48.7690 143° Southeast 470 541 29,000  Level FlightAware
09:42AM -20.3920 -48.7260 151° Southeast 472 543 29,000  Level FlightAware
09:43AM -20.4540 -48.6930 153° Southeast 472 543 29,000  Level FlightAware
09:43AM -20.5250 -48.6550 153° Southeast 470 541 29,000 -300 Level FlightAware
09:44AM -20.5950 -48.6180 154° Southeast 468 539 28,700 -840 Descending FlightAware
09:44AM -20.6650 -48.5810 154° Southeast 468 539 28,000 -660 Descending FlightAware
09:45AM -20.7240 -48.5490 153° Southeast 462 532 28,000  Level FlightAware
09:46AM -20.7970 -48.5100 153° Southeast 461 531 28,000  Level FlightAware
09:46AM -20.8610 -48.4750 153° Southeast 460 529 28,000  Level FlightAware
09:47AM -20.9320 -48.4370 153° Southeast 457 526 28,000  Level FlightAware
09:47AM -21.0000 -48.4010 154° Southeast 457 526 28,000  Level FlightAware
09:48AM -21.0660 -48.3650 153° Southeast 477 549 28,000  Level FlightAware
09:48AM -21.1300 -48.3160 144° Southeast 478 550 28,000  Level FlightAware
09:49AM -21.1870 -48.2540 135° Southeast 478 550 28,000  Level FlightAware
09:50AM -21.2410 -48.1920 133° Southeast 476 548 28,000  Level FlightAware
09:50AM -21.2890 -48.1370 133° Southeast 476 548 28,000  Level FlightAware
09:51AM -21.3440 -48.0750 134° Southeast 476 548 28,000  Level FlightAware
09:51AM -21.3980 -48.0140 134° Southeast 475 547 28,000  Level FlightAware
09:52AM -21.4460 -47.9600 134° Southeast 474 545 28,000  Level FlightAware
09:53AM -21.5050 -47.8930 133° Southeast 474 545 28,000  Level FlightAware
09:53AM -21.5600 -47.8340 135° Southeast 476 548 28,000  Level FlightAware
09:54AM -21.6160 -47.7940 146° Southeast 476 548 28,000  Level FlightAware
09:54AM -21.6840 -47.7430 145° Southeast 476 548 28,000  Level FlightAware
09:55AM -21.7490 -47.6960 146° Southeast 477 549 28,000  Level FlightAware
09:55AM -21.8120 -47.6510 146° Southeast 477 549 28,000  Level FlightAware
09:56AM -21.8780 -47.6030 146° Southeast 476 548 28,000  Level FlightAware
09:57AM -21.9430 -47.5550 146° Southeast 475 547 28,000  Level FlightAware
09:57AM -22.0030 -47.5120 146° Southeast 475 547 28,000  Level FlightAware
09:58AM -22.0680 -47.4650 146° Southeast 474 545 28,000  Level FlightAware
09:58AM -22.1290 -47.4210 146° Southeast 475 547 28,000  Level FlightAware
09:59AM -22.1970 -47.3720 146° Southeast 475 547 28,000 -120 Level FlightAware
10:00AM -22.2620 -47.3250 146° Southeast 453 521 27,900 -720 Descending FlightAware
10:00AM -22.3140 -47.2880 147° Southeast 434 499 27,200 -1,980 Descending FlightAware
10:01AM -22.3750 -47.2440 146° Southeast 427 491 25,700 -2,460 Descending FlightAware
10:01AM -22.4350 -47.2000 146° Southeast 421 484 24,200 -2,340 Descending FlightAware
10:02AM -22.4880 -47.1620 146° Southeast 415 478 23,000 -2,340 Descending FlightAware
10:02AM -22.5450 -47.1200 146° Southeast 409 471 21,600 -2,280 Descending FlightAware
10:03AM -22.6050 -47.0860 152° Southeast 406 467 20,300 -2,280 Descending FlightAware
10:04AM -22.6590 -47.0630 159° South 400 460 19,100 -2,280 Descending FlightAware
10:04AM -22.7240 -47.0360 159° South 391 450 17,700 -2,160 Descending FlightAware
10:05AM -22.7780 -47.0140 159° South 384 442 16,600 -2,100 Descending FlightAware
10:05AM -22.8420 -46.9870 159° South 376 433 15,300 -1,680 Descending FlightAware
10:06AM -22.8980 -46.9630 158° South 355 409 14,600 -1,440 Descending FlightAware
10:07AM -22.9470 -46.9420 158° South 350 403 13,700 -1,680 Descending FlightAware
10:07AM -23.0000 -46.9200 159° South 345 397 12,700 -1,740 Descending FlightAware
10:08AM -23.0510 -46.8980 158° South 340 391 11,700 -1,500 Descending FlightAware
10:08AM -23.1010 -46.8780 160° South 324 373 11,000 -600 Descending FlightAware
10:09AM -23.1500 -46.8570 158° South 292 336 11,000  Level FlightAware
10:09AM -23.1730 -46.8430 151° Southeast 287 330 11,000  Level FlightAware
10:09AM -23.1800 -46.8330 127° Southeast 286 329 11,000  Level FlightAware
10:10AM -23.1870 -46.8180 117° Southeast 287 330 11,000 -420 Level FlightAware
10:10AM -23.2040 -46.7660 110° East 288 331 10,700 -780 Descending FlightAware
10:10AM -23.2130 -46.7410 111° Southeast 290 334 10,300 -1,260 Descending FlightAware
10:11AM -23.2450 -46.7190 148° Southeast 291 335 9,700 -1,440 Descending FlightAware
10:11AM -23.2740 -46.7140 171° South 278 320 9,100 -1,500 Descending FlightAware
10:12AM -23.2930 -46.7110 172° South 262 302 8,800 -1,020 Descending FlightAware
10:12AM -23.3230 -46.7070 173° South 233 268 8,400 -1,080 Descending FlightAware
10:12AM -23.3430 -46.7030 170° South 219 252 8,000 -1,140 Descending FlightAware
10:13AM -23.3550 -46.7010 171° South 216 249 7,800 -1,020 Descending FlightAware
10:13AM -23.3790 -46.6970 171° South 212 244 7,400 -1,200 Descending FlightAware
10:13AM -23.4000 -46.6900 163° South 212 244 6,900 -1,320 Descending FlightAware
10:14AM -23.4170 -46.6830 159° South 216 249 6,500 -1,380 Descending FlightAware
10:14AM -23.4370 -46.6750 160° South 216 249 6,000 -1,320 Descending FlightAware
10:14AM -23.4560 -46.6650 154° Southeast 213 245 5,600 -1,080 Descending FlightAware
10:14AM -23.4610 -46.6590 132° Southeast 210 242 5,500 -780 Descending FlightAware
10:15AM -23.4640 -46.6520 115° Southeast 207 238 5,400 -900 Descending FlightAware
10:15AM -23.4710 -46.6330 112° Southeast 197 227 5,100 -1,140 Descending FlightAware
10:15AM -23.4740 -46.6210 105° East 188 216 4,800 -1,500 Descending FlightAware
10:16AM -23.4690 -46.6000 75° East 186 214 4,200 -1,260 Descending FlightAware
10:16AM -23.4640 -46.5810 74° East 190 219 3,900 -1,080 Descending FlightAware
10:16AM -23.4600 -46.5640 76° East 178 205 3,500 -1,020 Descending FlightAware
10:17AM -23.4550 -46.5470 72° East 156 180 3,200 -720 Descending FlightAware
10:17AM -23.4500 -46.5300 72° East 151 174 3,000 -720 Descending FlightAware
10:17AM -23.4480 -46.5200 78° East 150 173 2,800 -780 Descending FlightAware
10:18AM -23.4430 -46.5010 74° East 151 174 2,500 -600 Descending FlightAware
10:18AM -23.4400 -46.4930 68° East 151 174 2,300 -240 Descending FlightAware
10:18AM -23.4360 -46.4760 76° East 151 174 2,300  Level FlightAware
10:21AM -23.4321 -46.4695 155° Southeast  Level Estimated